sensor_id;sensor_type;location;lat;lon;timestamp;P1;durP1;ratioP1;P2;durP2;ratioP2
63693;SDS011;49839;51.798;10.954;2023-04-06T00:02:07;7.65;;;4.20;;
63693;SDS011;49839;51.798;10.954;2023-04-06T00:04:36;9.02;;;3.67;;
63693;SDS011;49839;51.798;10.954;2023-04-06T00:07:03;8.07;;;3.88;;
63693;SDS011;49839;51.798;10.954;2023-04-06T00:09:31;6.00;;;3.40;;
63693;SDS011;49839;51.798;10.954;2023-04-06T00:11:58;5.45;;;3.67;;
63693;SDS011;49839;51.798;10.954;2023-04-06T00:14:26;6.13;;;3.83;;
63693;SDS011;49839;51.798;10.954;2023-04-06T00:16:53;6.38;;;3.65;;
63693;SDS011;49839;51.798;10.954;2023-04-06T00:19:21;9.93;;;3.80;;
63693;SDS011;49839;51.798;10.954;2023-04-06T00:21:49;7.53;;;4.18;;
63693;SDS011;49839;51.798;10.954;2023-04-06T00:24:17;7.68;;;4.05;;
63693;SDS011;49839;51.798;10.954;2023-04-06T00:26:44;7.47;;;3.42;;
63693;SDS011;49839;51.798;10.954;2023-04-06T00:29:12;8.27;;;3.45;;
63693;SDS011;49839;51.798;10.954;2023-04-06T00:31:39;8.52;;;4.22;;
63693;SDS011;49839;51.798;10.954;2023-04-06T00:34:06;5.25;;;3.40;;
63693;SDS011;49839;51.798;10.954;2023-04-06T00:36:34;6.75;;;3.78;;
63693;SDS011;49839;51.798;10.954;2023-04-06T00:39:02;9.75;;;3.53;;
63693;SDS011;49839;51.798;10.954;2023-04-06T00:41:30;6.35;;;3.88;;
63693;SDS011;49839;51.798;10.954;2023-04-06T00:43:57;8.10;;;4.10;;
63693;SDS011;49839;51.798;10.954;2023-04-06T00:46:25;6.18;;;3.33;;
63693;SDS011;49839;51.798;10.954;2023-04-06T00:48:52;6.75;;;3.42;;
63693;SDS011;49839;51.798;10.954;2023-04-06T00:51:19;7.43;;;3.45;;
63693;SDS011;49839;51.798;10.954;2023-04-06T00:53:47;5.75;;;3.78;;
63693;SDS011;49839;51.798;10.954;2023-04-06T00:56:16;6.07;;;3.22;;
63693;SDS011;49839;51.798;10.954;2023-04-06T00:58:43;7.30;;;4.07;;
63693;SDS011;49839;51.798;10.954;2023-04-06T01:01:10;6.88;;;4.07;;
63693;SDS011;49839;51.798;10.954;2023-04-06T01:03:38;7.45;;;4.30;;
63693;SDS011;49839;51.798;10.954;2023-04-06T01:06:05;7.75;;;3.40;;
63693;SDS011;49839;51.798;10.954;2023-04-06T01:08:33;5.63;;;3.50;;
63693;SDS011;49839;51.798;10.954;2023-04-06T01:11:00;6.63;;;3.28;;
63693;SDS011;49839;51.798;10.954;2023-04-06T01:13:29;6.20;;;3.58;;
63693;SDS011;49839;51.798;10.954;2023-04-06T01:15:57;7.07;;;3.57;;
63693;SDS011;49839;51.798;10.954;2023-04-06T01:18:27;5.47;;;3.17;;
63693;SDS011;49839;51.798;10.954;2023-04-06T01:20:55;6.20;;;3.45;;
63693;SDS011;49839;51.798;10.954;2023-04-06T01:23:23;7.07;;;3.80;;
63693;SDS011;49839;51.798;10.954;2023-04-06T01:25:51;6.28;;;3.20;;
63693;SDS011;49839;51.798;10.954;2023-04-06T01:28:18;8.38;;;3.65;;
63693;SDS011;49839;51.798;10.954;2023-04-06T01:30:46;7.45;;;3.90;;
63693;SDS011;49839;51.798;10.954;2023-04-06T01:33:13;6.30;;;3.65;;
63693;SDS011;49839;51.798;10.954;2023-04-06T01:35:41;6.45;;;3.50;;
63693;SDS011;49839;51.798;10.954;2023-04-06T01:38:08;6.15;;;3.75;;
63693;SDS011;49839;51.798;10.954;2023-04-06T01:40:37;6.38;;;4.20;;
63693;SDS011;49839;51.798;10.954;2023-04-06T01:43:04;6.97;;;4.38;;
63693;SDS011;49839;51.798;10.954;2023-04-06T01:45:32;8.13;;;4.72;;
63693;SDS011;49839;51.798;10.954;2023-04-06T01:48:00;12.13;;;4.32;;
63693;SDS011;49839;51.798;10.954;2023-04-06T01:50:27;8.20;;;3.92;;
63693;SDS011;49839;51.798;10.954;2023-04-06T01:52:55;7.28;;;4.20;;
63693;SDS011;49839;51.798;10.954;2023-04-06T01:55:22;6.97;;;3.75;;
63693;SDS011;49839;51.798;10.954;2023-04-06T01:57:51;5.95;;;3.80;;
63693;SDS011;49839;51.798;10.954;2023-04-06T02:00:18;7.28;;;4.00;;
63693;SDS011;49839;51.798;10.954;2023-04-06T02:02:46;7.50;;;4.20;;
63693;SDS011;49839;51.798;10.954;2023-04-06T02:05:13;8.30;;;4.75;;
63693;SDS011;49839;51.798;10.954;2023-04-06T02:07:41;6.85;;;4.13;;
63693;SDS011;49839;51.798;10.954;2023-04-06T02:10:10;7.68;;;4.18;;
63693;SDS011;49839;51.798;10.954;2023-04-06T02:15:07;6.55;;;3.75;;
63693;SDS011;49839;51.798;10.954;2023-04-06T02:17:35;7.22;;;3.70;;
63693;SDS011;49839;51.798;10.954;2023-04-06T02:20:03;7.70;;;3.78;;
63693;SDS011;49839;51.798;10.954;2023-04-06T02:22:30;5.45;;;3.10;;
63693;SDS011;49839;51.798;10.954;2023-04-06T02:24:57;8.73;;;3.65;;
63693;SDS011;49839;51.798;10.954;2023-04-06T02:27:25;8.60;;;4.13;;
63693;SDS011;49839;51.798;10.954;2023-04-06T02:29:52;8.38;;;3.80;;
63693;SDS011;49839;51.798;10.954;2023-04-06T02:32:21;7.20;;;3.80;;
63693;SDS011;49839;51.798;10.954;2023-04-06T02:34:49;6.68;;;3.70;;
63693;SDS011;49839;51.798;10.954;2023-04-06T02:37:16;7.00;;;3.95;;
63693;SDS011;49839;51.798;10.954;2023-04-06T02:39:43;6.97;;;3.85;;
63693;SDS011;49839;51.798;10.954;2023-04-06T02:42:11;7.93;;;4.28;;
63693;SDS011;49839;51.798;10.954;2023-04-06T02:44:38;9.63;;;3.90;;
63693;SDS011;49839;51.798;10.954;2023-04-06T02:47:06;7.10;;;3.88;;
63693;SDS011;49839;51.798;10.954;2023-04-06T02:49:34;8.95;;;3.50;;
63693;SDS011;49839;51.798;10.954;2023-04-06T02:52:02;7.65;;;4.10;;
63693;SDS011;49839;51.798;10.954;2023-04-06T02:54:29;9.35;;;4.10;;
63693;SDS011;49839;51.798;10.954;2023-04-06T02:56:57;5.80;;;3.90;;
63693;SDS011;49839;51.798;10.954;2023-04-06T02:59:24;8.00;;;4.60;;
63693;SDS011;49839;51.798;10.954;2023-04-06T03:01:52;7.30;;;4.50;;
63693;SDS011;49839;51.798;10.954;2023-04-06T03:04:19;6.85;;;4.13;;
63693;SDS011;49839;51.798;10.954;2023-04-06T03:06:50;8.55;;;4.10;;
63693;SDS011;49839;51.798;10.954;2023-04-06T03:09:17;8.48;;;4.20;;
63693;SDS011;49839;51.798;10.954;2023-04-06T03:11:45;6.32;;;3.65;;
63693;SDS011;49839;51.798;10.954;2023-04-06T03:14:13;7.47;;;3.92;;
63693;SDS011;49839;51.798;10.954;2023-04-06T03:16:40;9.30;;;3.65;;
63693;SDS011;49839;51.798;10.954;2023-04-06T03:19:08;6.95;;;4.10;;
63693;SDS011;49839;51.798;10.954;2023-04-06T03:21:35;7.78;;;3.97;;
63693;SDS011;49839;51.798;10.954;2023-04-06T03:24:04;8.45;;;4.30;;
63693;SDS011;49839;51.798;10.954;2023-04-06T03:26:32;8.60;;;4.20;;
63693;SDS011;49839;51.798;10.954;2023-04-06T03:28:59;7.60;;;4.50;;
63693;SDS011;49839;51.798;10.954;2023-04-06T03:31:27;6.75;;;3.83;;
63693;SDS011;49839;51.798;10.954;2023-04-06T03:33:54;7.60;;;3.83;;
63693;SDS011;49839;51.798;10.954;2023-04-06T03:36:22;8.07;;;4.20;;
63693;SDS011;49839;51.798;10.954;2023-04-06T03:38:49;7.47;;;4.20;;
63693;SDS011;49839;51.798;10.954;2023-04-06T03:41:18;7.50;;;3.90;;
63693;SDS011;49839;51.798;10.954;2023-04-06T03:43:45;5.75;;;3.63;;
63693;SDS011;49839;51.798;10.954;2023-04-06T03:46:13;7.22;;;4.22;;
63693;SDS011;49839;51.798;10.954;2023-04-06T03:48:40;6.78;;;3.92;;
63693;SDS011;49839;51.798;10.954;2023-04-06T03:51:08;6.65;;;3.90;;
63693;SDS011;49839;51.798;10.954;2023-04-06T03:53:35;7.63;;;4.63;;
63693;SDS011;49839;51.798;10.954;2023-04-06T03:56:04;7.13;;;3.88;;
63693;SDS011;49839;51.798;10.954;2023-04-06T03:58:32;9.35;;;4.25;;
63693;SDS011;49839;51.798;10.954;2023-04-06T04:01:00;7.47;;;4.03;;
63693;SDS011;49839;51.798;10.954;2023-04-06T04:03:28;10.27;;;4.30;;
63693;SDS011;49839;51.798;10.954;2023-04-06T04:05:55;8.45;;;4.13;;
63693;SDS011;49839;51.798;10.954;2023-04-06T04:08:24;5.60;;;3.65;;
63693;SDS011;49839;51.798;10.954;2023-04-06T04:10:51;9.98;;;6.30;;
63693;SDS011;49839;51.798;10.954;2023-04-06T04:13:19;7.22;;;4.55;;
63693;SDS011;49839;51.798;10.954;2023-04-06T04:15:48;7.88;;;5.00;;
63693;SDS011;49839;51.798;10.954;2023-04-06T04:18:15;11.30;;;4.45;;
63693;SDS011;49839;51.798;10.954;2023-04-06T04:20:42;7.40;;;4.03;;
63693;SDS011;49839;51.798;10.954;2023-04-06T04:23:10;7.68;;;4.60;;
63693;SDS011;49839;51.798;10.954;2023-04-06T04:25:37;10.50;;;4.80;;
63693;SDS011;49839;51.798;10.954;2023-04-06T04:28:05;7.82;;;4.43;;
63693;SDS011;49839;51.798;10.954;2023-04-06T04:30:32;7.97;;;4.38;;
63693;SDS011;49839;51.798;10.954;2023-04-06T04:33:01;10.95;;;6.25;;
63693;SDS011;49839;51.798;10.954;2023-04-06T04:35:28;38.97;;;27.33;;
63693;SDS011;49839;51.798;10.954;2023-04-06T04:37:56;38.35;;;27.80;;
63693;SDS011;49839;51.798;10.954;2023-04-06T04:40:23;33.78;;;25.17;;
63693;SDS011;49839;51.798;10.954;2023-04-06T04:42:51;20.58;;;13.82;;
63693;SDS011;49839;51.798;10.954;2023-04-06T04:45:18;18.15;;;12.55;;
63693;SDS011;49839;51.798;10.954;2023-04-06T04:47:46;11.15;;;6.75;;
63693;SDS011;49839;51.798;10.954;2023-04-06T04:50:15;12.23;;;8.05;;
63693;SDS011;49839;51.798;10.954;2023-04-06T04:52:43;9.70;;;7.35;;
63693;SDS011;49839;51.798;10.954;2023-04-06T04:55:10;12.13;;;7.75;;
63693;SDS011;49839;51.798;10.954;2023-04-06T04:57:37;8.27;;;5.03;;
63693;SDS011;49839;51.798;10.954;2023-04-06T05:00:05;12.82;;;7.40;;
63693;SDS011;49839;51.798;10.954;2023-04-06T05:02:33;12.65;;;7.40;;
63693;SDS011;49839;51.798;10.954;2023-04-06T05:05:01;10.00;;;6.70;;
63693;SDS011;49839;51.798;10.954;2023-04-06T05:07:29;8.52;;;5.88;;
63693;SDS011;49839;51.798;10.954;2023-04-06T05:09:57;9.55;;;5.28;;
63693;SDS011;49839;51.798;10.954;2023-04-06T05:12:25;8.23;;;4.93;;
63693;SDS011;49839;51.798;10.954;2023-04-06T05:14:53;8.45;;;4.30;;
63693;SDS011;49839;51.798;10.954;2023-04-06T05:17:21;8.02;;;4.43;;
63693;SDS011;49839;51.798;10.954;2023-04-06T05:19:48;7.72;;;4.72;;
63693;SDS011;49839;51.798;10.954;2023-04-06T05:22:16;8.02;;;4.72;;
63693;SDS011;49839;51.798;10.954;2023-04-06T05:24:45;8.77;;;4.75;;
63693;SDS011;49839;51.798;10.954;2023-04-06T05:27:12;12.93;;;4.55;;
63693;SDS011;49839;51.798;10.954;2023-04-06T05:29:40;8.88;;;5.15;;
63693;SDS011;49839;51.798;10.954;2023-04-06T05:32:07;9.32;;;4.40;;
63693;SDS011;49839;51.798;10.954;2023-04-06T05:34:35;27.45;;;8.60;;
63693;SDS011;49839;51.798;10.954;2023-04-06T05:37:02;8.88;;;4.85;;
63693;SDS011;49839;51.798;10.954;2023-04-06T05:39:31;8.85;;;4.60;;
63693;SDS011;49839;51.798;10.954;2023-04-06T05:42:01;9.63;;;5.53;;
63693;SDS011;49839;51.798;10.954;2023-04-06T05:44:28;8.38;;;4.88;;
63693;SDS011;49839;51.798;10.954;2023-04-06T05:46:56;9.32;;;5.10;;
63693;SDS011;49839;51.798;10.954;2023-04-06T05:49:23;10.70;;;4.57;;
63693;SDS011;49839;51.798;10.954;2023-04-06T05:51:51;8.63;;;4.50;;
63693;SDS011;49839;51.798;10.954;2023-04-06T05:54:18;9.20;;;4.63;;
63693;SDS011;49839;51.798;10.954;2023-04-06T05:56:46;9.68;;;4.40;;
63693;SDS011;49839;51.798;10.954;2023-04-06T05:59:15;8.50;;;4.35;;
63693;SDS011;49839;51.798;10.954;2023-04-06T06:01:42;7.13;;;3.95;;
63693;SDS011;49839;51.798;10.954;2023-04-06T06:04:10;7.00;;;3.72;;
63693;SDS011;49839;51.798;10.954;2023-04-06T06:06:37;6.25;;;3.80;;
63693;SDS011;49839;51.798;10.954;2023-04-06T06:09:05;8.52;;;3.95;;
63693;SDS011;49839;51.798;10.954;2023-04-06T06:11:33;7.50;;;3.90;;
63693;SDS011;49839;51.798;10.954;2023-04-06T06:14:00;6.85;;;3.85;;
63693;SDS011;49839;51.798;10.954;2023-04-06T06:16:29;7.75;;;4.43;;
63693;SDS011;49839;51.798;10.954;2023-04-06T06:18:57;8.55;;;4.22;;
63693;SDS011;49839;51.798;10.954;2023-04-06T06:21:24;10.55;;;4.63;;
63693;SDS011;49839;51.798;10.954;2023-04-06T06:23:52;9.55;;;5.20;;
63693;SDS011;49839;51.798;10.954;2023-04-06T06:26:20;9.57;;;4.85;;
63693;SDS011;49839;51.798;10.954;2023-04-06T06:28:48;7.45;;;4.30;;
63693;SDS011;49839;51.798;10.954;2023-04-06T06:31:15;8.90;;;4.30;;
63693;SDS011;49839;51.798;10.954;2023-04-06T06:33:46;8.85;;;4.68;;
63693;SDS011;49839;51.798;10.954;2023-04-06T06:36:16;9.10;;;4.20;;
63693;SDS011;49839;51.798;10.954;2023-04-06T06:38:44;7.68;;;4.05;;
63693;SDS011;49839;51.798;10.954;2023-04-06T06:41:11;8.32;;;4.25;;
63693;SDS011;49839;51.798;10.954;2023-04-06T06:43:39;8.52;;;3.95;;
63693;SDS011;49839;51.798;10.954;2023-04-06T06:46:06;5.85;;;3.45;;
63693;SDS011;49839;51.798;10.954;2023-04-06T06:48:34;6.55;;;3.35;;
63693;SDS011;49839;51.798;10.954;2023-04-06T06:51:03;9.93;;;3.85;;
63693;SDS011;49839;51.798;10.954;2023-04-06T06:53:30;6.63;;;3.70;;
63693;SDS011;49839;51.798;10.954;2023-04-06T06:55:58;7.10;;;3.92;;
63693;SDS011;49839;51.798;10.954;2023-04-06T06:58:25;7.88;;;4.22;;
63693;SDS011;49839;51.798;10.954;2023-04-06T07:00:55;6.05;;;3.50;;
63693;SDS011;49839;51.798;10.954;2023-04-06T07:03:23;8.30;;;3.80;;
63693;SDS011;49839;51.798;10.954;2023-04-06T07:05:50;8.68;;;3.60;;
63693;SDS011;49839;51.798;10.954;2023-04-06T07:08:21;7.15;;;3.22;;
63693;SDS011;49839;51.798;10.954;2023-04-06T07:10:49;7.20;;;3.58;;
63693;SDS011;49839;51.798;10.954;2023-04-06T07:13:18;6.18;;;3.25;;
63693;SDS011;49839;51.798;10.954;2023-04-06T07:15:50;5.65;;;3.47;;
63693;SDS011;49839;51.798;10.954;2023-04-06T07:18:17;6.63;;;3.35;;
63693;SDS011;49839;51.798;10.954;2023-04-06T07:20:45;6.97;;;3.65;;
63693;SDS011;49839;51.798;10.954;2023-04-06T07:23:13;6.95;;;3.30;;
63693;SDS011;49839;51.798;10.954;2023-04-06T07:25:41;9.68;;;3.75;;
63693;SDS011;49839;51.798;10.954;2023-04-06T07:28:09;8.07;;;3.72;;
63693;SDS011;49839;51.798;10.954;2023-04-06T07:30:37;7.25;;;3.17;;
63693;SDS011;49839;51.798;10.954;2023-04-06T07:33:04;6.40;;;4.13;;
63693;SDS011;49839;51.798;10.954;2023-04-06T07:35:33;7.18;;;3.80;;
63693;SDS011;49839;51.798;10.954;2023-04-06T07:38:01;5.77;;;3.57;;
63693;SDS011;49839;51.798;10.954;2023-04-06T07:40:28;9.90;;;4.18;;
63693;SDS011;49839;51.798;10.954;2023-04-06T07:42:59;10.18;;;3.90;;
63693;SDS011;49839;51.798;10.954;2023-04-06T07:45:28;7.63;;;4.03;;
63693;SDS011;49839;51.798;10.954;2023-04-06T07:47:55;7.18;;;3.90;;
63693;SDS011;49839;51.798;10.954;2023-04-06T07:50:23;8.82;;;4.60;;
63693;SDS011;49839;51.798;10.954;2023-04-06T07:52:54;8.45;;;4.43;;
63693;SDS011;49839;51.798;10.954;2023-04-06T07:55:21;8.57;;;4.13;;
63693;SDS011;49839;51.798;10.954;2023-04-06T07:57:49;7.85;;;4.82;;
63693;SDS011;49839;51.798;10.954;2023-04-06T08:00:18;8.38;;;4.45;;
63693;SDS011;49839;51.798;10.954;2023-04-06T08:02:46;9.55;;;4.45;;
63693;SDS011;49839;51.798;10.954;2023-04-06T08:05:14;8.10;;;5.00;;
63693;SDS011;49839;51.798;10.954;2023-04-06T08:07:42;8.02;;;5.03;;
63693;SDS011;49839;51.798;10.954;2023-04-06T08:10:09;8.35;;;4.53;;
63693;SDS011;49839;51.798;10.954;2023-04-06T08:12:37;6.78;;;4.45;;
63693;SDS011;49839;51.798;10.954;2023-04-06T08:15:05;7.97;;;4.18;;
63693;SDS011;49839;51.798;10.954;2023-04-06T08:17:34;9.38;;;4.85;;
63693;SDS011;49839;51.798;10.954;2023-04-06T08:20:01;8.32;;;4.32;;
63693;SDS011;49839;51.798;10.954;2023-04-06T08:22:30;7.97;;;4.50;;
63693;SDS011;49839;51.798;10.954;2023-04-06T08:24:58;7.15;;;4.70;;
63693;SDS011;49839;51.798;10.954;2023-04-06T08:27:26;8.40;;;4.65;;
63693;SDS011;49839;51.798;10.954;2023-04-06T08:29:53;8.23;;;4.63;;
63693;SDS011;49839;51.798;10.954;2023-04-06T08:32:21;12.43;;;4.55;;
63693;SDS011;49839;51.798;10.954;2023-04-06T08:34:52;6.45;;;4.18;;
63693;SDS011;49839;51.798;10.954;2023-04-06T08:37:20;11.00;;;4.75;;
63693;SDS011;49839;51.798;10.954;2023-04-06T08:39:47;7.47;;;4.50;;
63693;SDS011;49839;51.798;10.954;2023-04-06T08:42:16;8.55;;;5.95;;
63693;SDS011;49839;51.798;10.954;2023-04-06T08:44:46;7.00;;;4.57;;
63693;SDS011;49839;51.798;10.954;2023-04-06T08:47:14;8.02;;;4.18;;
63693;SDS011;49839;51.798;10.954;2023-04-06T08:49:41;7.13;;;4.78;;
63693;SDS011;49839;51.798;10.954;2023-04-06T08:52:11;8.43;;;4.85;;
63693;SDS011;49839;51.798;10.954;2023-04-06T08:54:39;6.85;;;4.47;;
63693;SDS011;49839;51.798;10.954;2023-04-06T08:57:06;7.38;;;4.50;;
63693;SDS011;49839;51.798;10.954;2023-04-06T08:59:34;7.80;;;4.72;;
63693;SDS011;49839;51.798;10.954;2023-04-06T09:02:03;6.90;;;4.17;;
63693;SDS011;49839;51.798;10.954;2023-04-06T09:04:31;7.50;;;4.95;;
63693;SDS011;49839;51.798;10.954;2023-04-06T09:07:00;10.63;;;4.90;;
63693;SDS011;49839;51.798;10.954;2023-04-06T09:09:29;8.50;;;4.87;;
63693;SDS011;49839;51.798;10.954;2023-04-06T09:11:56;8.63;;;4.65;;
63693;SDS011;49839;51.798;10.954;2023-04-06T09:14:36;9.02;;;4.47;;
63693;SDS011;49839;51.798;10.954;2023-04-06T09:17:04;7.45;;;4.47;;
63693;SDS011;49839;51.798;10.954;2023-04-06T09:19:31;6.82;;;4.30;;
63693;SDS011;49839;51.798;10.954;2023-04-06T09:22:02;7.13;;;4.28;;
63693;SDS011;49839;51.798;10.954;2023-04-06T09:24:41;7.82;;;4.20;;
63693;SDS011;49839;51.798;10.954;2023-04-06T09:27:08;6.75;;;4.40;;
63693;SDS011;49839;51.798;10.954;2023-04-06T09:29:36;8.50;;;4.53;;
63693;SDS011;49839;51.798;10.954;2023-04-06T09:32:03;7.65;;;4.85;;
63693;SDS011;49839;51.798;10.954;2023-04-06T09:34:31;10.02;;;4.38;;
63693;SDS011;49839;51.798;10.954;2023-04-06T09:36:59;7.03;;;4.50;;
63693;SDS011;49839;51.798;10.954;2023-04-06T09:39:27;6.78;;;4.28;;
63693;SDS011;49839;51.798;10.954;2023-04-06T09:41:56;8.32;;;4.65;;
63693;SDS011;49839;51.798;10.954;2023-04-06T09:44:23;7.15;;;4.25;;
63693;SDS011;49839;51.798;10.954;2023-04-06T09:46:51;8.20;;;3.95;;
63693;SDS011;49839;51.798;10.954;2023-04-06T09:49:27;5.72;;;3.70;;
63693;SDS011;49839;51.798;10.954;2023-04-06T09:51:55;6.85;;;3.78;;
63693;SDS011;49839;51.798;10.954;2023-04-06T09:54:24;11.20;;;5.68;;
63693;SDS011;49839;51.798;10.954;2023-04-06T09:56:56;18.88;;;7.53;;
63693;SDS011;49839;51.798;10.954;2023-04-06T09:59:25;17.27;;;7.13;;
63693;SDS011;49839;51.798;10.954;2023-04-06T10:01:56;7.30;;;4.57;;
63693;SDS011;49839;51.798;10.954;2023-04-06T10:04:28;7.20;;;4.50;;
63693;SDS011;49839;51.798;10.954;2023-04-06T10:07:01;6.85;;;4.45;;
63693;SDS011;49839;51.798;10.954;2023-04-06T10:09:29;7.80;;;4.80;;
63693;SDS011;49839;51.798;10.954;2023-04-06T10:12:04;6.70;;;4.25;;
63693;SDS011;49839;51.798;10.954;2023-04-06T10:14:32;8.38;;;5.20;;
63693;SDS011;49839;51.798;10.954;2023-04-06T10:17:01;8.15;;;4.32;;
63693;SDS011;49839;51.798;10.954;2023-04-06T10:19:32;6.80;;;4.20;;
63693;SDS011;49839;51.798;10.954;2023-04-06T10:22:01;8.88;;;4.20;;
63693;SDS011;49839;51.798;10.954;2023-04-06T10:24:30;7.22;;;4.47;;
63693;SDS011;49839;51.798;10.954;2023-04-06T10:26:58;8.13;;;4.30;;
63693;SDS011;49839;51.798;10.954;2023-04-06T10:29:27;6.73;;;3.90;;
63693;SDS011;49839;51.798;10.954;2023-04-06T10:34:22;6.65;;;3.38;;
63693;SDS011;49839;51.798;10.954;2023-04-06T10:36:49;6.90;;;4.20;;
63693;SDS011;49839;51.798;10.954;2023-04-06T10:39:23;7.05;;;4.00;;
63693;SDS011;49839;51.798;10.954;2023-04-06T10:41:52;6.45;;;3.88;;
63693;SDS011;49839;51.798;10.954;2023-04-06T10:44:19;7.40;;;3.97;;
63693;SDS011;49839;51.798;10.954;2023-04-06T10:46:55;7.57;;;3.90;;
63693;SDS011;49839;51.798;10.954;2023-04-06T10:49:24;6.68;;;3.70;;
63693;SDS011;49839;51.798;10.954;2023-04-06T10:51:53;6.68;;;4.00;;
63693;SDS011;49839;51.798;10.954;2023-04-06T10:54:21;8.25;;;3.92;;
63693;SDS011;49839;51.798;10.954;2023-04-06T10:56:50;8.55;;;4.35;;
63693;SDS011;49839;51.798;10.954;2023-04-06T10:59:18;7.93;;;3.90;;
63693;SDS011;49839;51.798;10.954;2023-04-06T11:01:46;7.45;;;4.10;;
63693;SDS011;49839;51.798;10.954;2023-04-06T11:04:16;6.00;;;3.78;;
63693;SDS011;49839;51.798;10.954;2023-04-06T11:06:46;7.75;;;3.95;;
63693;SDS011;49839;51.798;10.954;2023-04-06T11:09:22;7.65;;;4.18;;
63693;SDS011;49839;51.798;10.954;2023-04-06T11:11:50;7.60;;;4.10;;
63693;SDS011;49839;51.798;10.954;2023-04-06T11:14:17;7.18;;;4.15;;
63693;SDS011;49839;51.798;10.954;2023-04-06T11:16:46;8.60;;;4.28;;
63693;SDS011;49839;51.798;10.954;2023-04-06T11:19:13;8.10;;;4.20;;
63693;SDS011;49839;51.798;10.954;2023-04-06T11:21:43;8.30;;;4.30;;
63693;SDS011;49839;51.798;10.954;2023-04-06T11:24:14;6.50;;;3.92;;
63693;SDS011;49839;51.798;10.954;2023-04-06T11:26:43;8.20;;;3.88;;
63693;SDS011;49839;51.798;10.954;2023-04-06T11:29:12;8.80;;;4.30;;
63693;SDS011;49839;51.798;10.954;2023-04-06T11:31:43;6.75;;;4.00;;
63693;SDS011;49839;51.798;10.954;2023-04-06T11:34:12;7.18;;;4.00;;
63693;SDS011;49839;51.798;10.954;2023-04-06T11:36:40;6.40;;;4.45;;
63693;SDS011;49839;51.798;10.954;2023-04-06T11:39:10;7.60;;;4.32;;
63693;SDS011;49839;51.798;10.954;2023-04-06T11:41:37;8.40;;;3.95;;
63693;SDS011;49839;51.798;10.954;2023-04-06T11:44:05;5.90;;;3.72;;
63693;SDS011;49839;51.798;10.954;2023-04-06T11:46:32;5.80;;;3.42;;
63693;SDS011;49839;51.798;10.954;2023-04-06T11:49:01;6.45;;;3.90;;
63693;SDS011;49839;51.798;10.954;2023-04-06T11:51:29;5.63;;;3.60;;
63693;SDS011;49839;51.798;10.954;2023-04-06T11:53:56;6.60;;;4.13;;
63693;SDS011;49839;51.798;10.954;2023-04-06T11:56:26;8.50;;;4.53;;
63693;SDS011;49839;51.798;10.954;2023-04-06T12:01:21;8.00;;;4.22;;
63693;SDS011;49839;51.798;10.954;2023-04-06T12:03:48;8.43;;;4.43;;
63693;SDS011;49839;51.798;10.954;2023-04-06T12:06:16;7.07;;;4.47;;
63693;SDS011;49839;51.798;10.954;2023-04-06T12:08:44;8.45;;;5.00;;
63693;SDS011;49839;51.798;10.954;2023-04-06T12:11:11;8.98;;;4.60;;
63693;SDS011;49839;51.798;10.954;2023-04-06T12:13:40;8.32;;;5.13;;
63693;SDS011;49839;51.798;10.954;2023-04-06T12:16:08;11.18;;;6.55;;
63693;SDS011;49839;51.798;10.954;2023-04-06T12:18:35;10.05;;;6.05;;
63693;SDS011;49839;51.798;10.954;2023-04-06T12:21:03;7.97;;;5.00;;
63693;SDS011;49839;51.798;10.954;2023-04-06T12:23:31;8.77;;;5.35;;
63693;SDS011;49839;51.798;10.954;2023-04-06T12:25:58;8.55;;;5.00;;
63693;SDS011;49839;51.798;10.954;2023-04-06T12:28:27;9.93;;;6.15;;
63693;SDS011;49839;51.798;10.954;2023-04-06T12:30:55;9.15;;;5.28;;
63693;SDS011;49839;51.798;10.954;2023-04-06T12:33:23;9.43;;;4.33;;
63693;SDS011;49839;51.798;10.954;2023-04-06T12:35:50;8.32;;;4.20;;
63693;SDS011;49839;51.798;10.954;2023-04-06T12:38:18;8.82;;;4.10;;
63693;SDS011;49839;51.798;10.954;2023-04-06T12:40:46;6.90;;;4.22;;
63693;SDS011;49839;51.798;10.954;2023-04-06T12:43:13;7.13;;;3.88;;
63693;SDS011;49839;51.798;10.954;2023-04-06T12:45:41;7.53;;;4.18;;
63693;SDS011;49839;51.798;10.954;2023-04-06T12:48:10;6.38;;;3.30;;
63693;SDS011;49839;51.798;10.954;2023-04-06T12:50:37;6.63;;;3.70;;
63693;SDS011;49839;51.798;10.954;2023-04-06T12:53:04;8.00;;;4.75;;
63693;SDS011;49839;51.798;10.954;2023-04-06T12:55:32;7.28;;;4.15;;
63693;SDS011;49839;51.798;10.954;2023-04-06T12:58:01;8.20;;;4.80;;
63693;SDS011;49839;51.798;10.954;2023-04-06T13:00:29;9.02;;;4.47;;
63693;SDS011;49839;51.798;10.954;2023-04-06T13:02:56;10.82;;;4.40;;
63693;SDS011;49839;51.798;10.954;2023-04-06T13:05:25;8.52;;;4.13;;
63693;SDS011;49839;51.798;10.954;2023-04-06T13:07:55;7.65;;;4.20;;
63693;SDS011;49839;51.798;10.954;2023-04-06T13:10:23;8.60;;;4.35;;
63693;SDS011;49839;51.798;10.954;2023-04-06T13:12:50;8.55;;;3.95;;
63693;SDS011;49839;51.798;10.954;2023-04-06T13:15:18;6.40;;;3.80;;
63693;SDS011;49839;51.798;10.954;2023-04-06T13:17:45;7.63;;;4.00;;
63693;SDS011;49839;51.798;10.954;2023-04-06T13:20:13;9.85;;;4.90;;
63693;SDS011;49839;51.798;10.954;2023-04-06T13:22:42;7.00;;;4.32;;
63693;SDS011;49839;51.798;10.954;2023-04-06T13:25:09;7.13;;;4.37;;
63693;SDS011;49839;51.798;10.954;2023-04-06T13:27:36;6.35;;;4.28;;
63693;SDS011;49839;51.798;10.954;2023-04-06T13:30:04;7.35;;;4.50;;
63693;SDS011;49839;51.798;10.954;2023-04-06T13:32:32;7.43;;;4.82;;
63693;SDS011;49839;51.798;10.954;2023-04-06T13:35:00;7.75;;;4.63;;
63693;SDS011;49839;51.798;10.954;2023-04-06T13:37:29;8.98;;;4.55;;
63693;SDS011;49839;51.798;10.954;2023-04-06T13:39:58;8.57;;;4.47;;
63693;SDS011;49839;51.798;10.954;2023-04-06T13:42:26;7.32;;;4.70;;
63693;SDS011;49839;51.798;10.954;2023-04-06T13:44:54;8.32;;;4.60;;
63693;SDS011;49839;51.798;10.954;2023-04-06T13:47:21;7.28;;;4.70;;
63693;SDS011;49839;51.798;10.954;2023-04-06T13:49:49;8.82;;;4.50;;
63693;SDS011;49839;51.798;10.954;2023-04-06T13:52:17;8.48;;;4.75;;
63693;SDS011;49839;51.798;10.954;2023-04-06T13:54:44;8.60;;;4.45;;
63693;SDS011;49839;51.798;10.954;2023-04-06T13:57:13;8.32;;;4.18;;
63693;SDS011;49839;51.798;10.954;2023-04-06T13:59:40;8.57;;;4.50;;
63693;SDS011;49839;51.798;10.954;2023-04-06T14:02:13;16.95;;;7.65;;
63693;SDS011;49839;51.798;10.954;2023-04-06T14:04:41;7.78;;;5.10;;
63693;SDS011;49839;51.798;10.954;2023-04-06T14:07:08;7.78;;;4.70;;
63693;SDS011;49839;51.798;10.954;2023-04-06T14:09:35;9.90;;;5.93;;
63693;SDS011;49839;51.798;10.954;2023-04-06T14:12:03;10.73;;;6.25;;
63693;SDS011;49839;51.798;10.954;2023-04-06T14:14:31;7.68;;;4.82;;
63693;SDS011;49839;51.798;10.954;2023-04-06T14:16:59;7.93;;;4.65;;
63693;SDS011;49839;51.798;10.954;2023-04-06T14:19:27;8.68;;;4.60;;
63693;SDS011;49839;51.798;10.954;2023-04-06T14:21:54;7.53;;;4.93;;
63693;SDS011;49839;51.798;10.954;2023-04-06T14:24:22;8.45;;;5.20;;
63693;SDS011;49839;51.798;10.954;2023-04-06T14:26:49;9.82;;;4.90;;
63693;SDS011;49839;51.798;10.954;2023-04-06T14:29:17;9.52;;;5.05;;
63693;SDS011;49839;51.798;10.954;2023-04-06T14:31:46;10.70;;;5.45;;
63693;SDS011;49839;51.798;10.954;2023-04-06T14:34:14;11.60;;;7.25;;
63693;SDS011;49839;51.798;10.954;2023-04-06T14:36:41;11.18;;;5.70;;
63693;SDS011;49839;51.798;10.954;2023-04-06T14:39:09;8.30;;;4.53;;
63693;SDS011;49839;51.798;10.954;2023-04-06T14:41:37;7.88;;;4.88;;
63693;SDS011;49839;51.798;10.954;2023-04-06T14:44:04;8.40;;;5.80;;
63693;SDS011;49839;51.798;10.954;2023-04-06T14:46:32;9.95;;;5.85;;